12h45 EDT


 

Suivi/Infos de l'aéroport


-ou-


 

Suivi des vols en temps réel9Y-TTC ✈ 01-05-2013 ✈ TTCP / TAB - TTPP / POS

Thumbnail
9Y-TTC / BWA1541
Unknown Owner · Trinidad & Tobago
Crown Point ( – info)
Scarborough, Tobago TT
Piarco Int'l ( – info)
Port-d'Espagne TT
Prévu: 21h45 AST
Prévu: 21h50 AST
Durée: 18 minutes
mercredi, 1 mai 2013
Statut Arrivé il y a plus d'un an. (journal de vol & graphique)
Avion Aerospatiale ATR-42-300 (bi-turbopropulseur) (AT43 – photos)
Vitesse Plan de vol: 532 kts (graphique)
Distance En ligne droite 83 km
Une partie au moins de ce vol se déroule hors de la zone de services primaire de FlightAware. Pour en savoir plus sur la couverture et la zone de services de FlightAware.
JOURNAL DE L'ACTIVITE
Vous voulez une recherche complète sur l'historique de 9Y-TTC depuis 1998? Achetez maintenant. Recevez-le dans l'heure.
Date Avion Provenance Destination Départ Arrivée Durée
02-09-2014 AT43Piarco Int'l ()Crown Point () 12h03 AST 12h17 AST 0:13
02-09-2014 AT43Crown Point ()Piarco Int'l () 11h02 AST 11h19 AST 0:17
02-09-2014 AT43Piarco Int'l ()Crown Point () 10h02 AST 10h16 AST 0:14
02-09-2014 AT43Crown Point ()Piarco Int'l () 09h01 AST 09h17 AST 0:16
02-09-2014 AT43Piarco Int'l ()Crown Point () 08h05 AST 08h20 AST 0:14
02-09-2014 AT43Crown Point ()Piarco Int'l () 07h12 AST 07h28 AST 0:16
02-09-2014 AT43Piarco Int'l ()Crown Point () 06h10 AST 06h26 AST 0:16
01-09-2014 AT43Int'l Grantley-Adams ()Piarco Int'l () 21h33 AST 22h29 AST 0:55
01-09-2014 AT43Piarco Int'l ()Int'l Grantley-Adams () 19h57 AST 20h52 AST 0:55
01-09-2014 AT43Crown Point ()Piarco Int'l () 16h49 AST 17h11 AST 0:22
01-09-2014 AT43Piarco Int'l ()Crown Point () 15h57 AST 16h14 AST 0:17
01-09-2014 AT43Crown Point ()Piarco Int'l () 14h44 AST 15h05 AST 0:21
01-09-2014 AT43Piarco Int'l ()Crown Point () 13h49 AST 14h07 AST 0:18
01-09-2014 AT43Point Salines Int'l ()Piarco Int'l () 08h05 AST 08h33 AST 0:28
01-09-2014 AT43Piarco Int'l ()Point Salines Int'l () 07h03 AST 07h30 AST 0:26
01-09-2014 AT43Crown Point ()Piarco Int'l () 01h41 AST 01h58 AST 0:17
01-09-2014 AT43Piarco Int'l ()Crown Point () 00h42 AST 00h59 AST 0:17
31-08-2014 AT43Crown Point ()Piarco Int'l () 23h49 AST 00h07 AST (+1) 0:18
31-08-2014 AT43Piarco Int'l ()Crown Point () 22h51 AST 23h07 AST 0:16
31-08-2014 AT43Crown Point ()Piarco Int'l () 21h52 AST 22h14 AST 0:22
31-08-2014 AT43Piarco Int'l ()Crown Point () 20h54 AST 21h12 AST 0:18
31-08-2014 AT43Crown Point ()Piarco Int'l () 19h50 AST 20h05 AST 0:14
31-08-2014 AT43Piarco Int'l ()Crown Point () 18h58 AST 19h13 AST 0:14
31-08-2014 AT43Crown Point ()Piarco Int'l () 17h53 AST 18h12 AST 0:19
31-08-2014 AT43Piarco Int'l ()Crown Point () 17h01 AST 17h16 AST 0:14
31-08-2014 AT43Crown Point ()Piarco Int'l () 13h21 AST 13h43 AST 0:22
31-08-2014 AT43Piarco Int'l ()Crown Point () 12h27 AST 12h45 AST 0:18
31-08-2014 AT43Int'l Maiquetía ~ Simón Bolívar ()Piarco Int'l () 09h26 VET 11h27 AST 1:31
30-08-2014 AT43Crown Point ()Piarco Int'l () 19h52 AST 20h16 AST 0:24
30-08-2014 AT43Piarco Int'l ()Crown Point () 19h00 AST 19h17 AST (?) 0:16
30-08-2014 AT43Crown Point ()Piarco Int'l () 17h51 AST 18h09 AST 0:18
30-08-2014 AT43Piarco Int'l ()Crown Point () 16h57 AST 17h12 AST 0:14
30-08-2014 AT43Crown Point ()Piarco Int'l () 15h58 AST 16h17 AST 0:19
30-08-2014 AT43Piarco Int'l ()Crown Point () 15h04 AST 15h18 AST 0:14
30-08-2014 AT43Crown Point ()Piarco Int'l () 13h54 AST 14h12 AST 0:18
30-08-2014 AT43Piarco Int'l ()Crown Point () 12h34 AST 12h50 AST 0:16
30-08-2014 AT43Int'l Maiquetía ~ Simón Bolívar ()Piarco Int'l () 09h28 VET 11h30 AST 1:32
30-08-2014 AT43Piarco Int'l ()Int'l Maiquetía ~ Simón Bolívar () 07h11 AST 08h13 VET 1:31
30-08-2014 AT43Crown Point ()Piarco Int'l () 01h26 AST 01h41 AST (+1) Inconnu
30-08-2014 AT43Piarco Int'l ()Crown Point () 00h38 AST 00h54 AST 0:16
29-08-2014 AT43Crown Point ()Piarco Int'l () 23h43 AST 23h59 AST 0:16
29-08-2014 AT43Piarco Int'l ()Crown Point () 22h58 AST 23h13 AST 0:14
29-08-2014 AT43Crown Point ()Piarco Int'l () 21h54 AST 22h12 AST 0:18
29-08-2014 AT43Piarco Int'l ()Crown Point () 21h05 AST 21h18 AST 0:12
29-08-2014 AT43Crown Point ()Piarco Int'l () 19h30 AST 19h49 AST 0:19
29-08-2014 AT43Piarco Int'l ()Crown Point () 18h31 AST 18h48 AST 0:17
29-08-2014 AT43Crown Point ()Piarco Int'l () 16h34 AST 16h52 AST 0:18
29-08-2014 AT43Piarco Int'l ()Crown Point () 15h39 AST 15h54 AST 0:14
29-08-2014 AT43Crown Point ()Piarco Int'l () 13h28 AST 13h43 AST 0:15
29-08-2014 AT43Piarco Int'l ()Crown Point () 12h34 AST 12h49 AST 0:14
29-08-2014 AT43Crown Point ()Piarco Int'l () 11h28 AST 11h47 AST 0:19
29-08-2014 AT43Piarco Int'l ()Crown Point () 10h34 AST 10h51 AST 0:17
29-08-2014 AT43Crown Point ()Piarco Int'l () 09h23 AST 09h44 AST 0:21
29-08-2014 AT43Piarco Int'l ()Crown Point () 08h33 AST 08h49 AST 0:15
29-08-2014 AT43Crown Point ()Piarco Int'l () 07h28 AST 07h45 AST 0:17
29-08-2014 AT43Piarco Int'l ()Crown Point () 06h24 AST 06h38 AST 0:13
28-08-2014 AT43Crown Point ()Piarco Int'l () 20h42 AST 20h59 AST 0:17
28-08-2014 AT43Piarco Int'l ()Crown Point () 19h53 AST 20h10 AST 0:17
28-08-2014 AT43Crown Point ()Piarco Int'l () 18h57 AST 19h14 AST 0:17
28-08-2014 AT43Piarco Int'l ()Crown Point () 18h04 AST 18h20 AST 0:16
28-08-2014 AT43Crown Point ()Piarco Int'l () 16h57 AST 17h14 AST 0:17
28-08-2014 AT43Piarco Int'l ()Crown Point () 16h02 AST 16h20 AST 0:18
28-08-2014 AT43Crown Point ()Piarco Int'l () 14h51 AST 15h09 AST 0:18
28-08-2014 AT43Piarco Int'l ()Crown Point () 14h00 AST 14h17 AST 0:17
27-08-2014 AT43Int'l Grantley-Adams ()Piarco Int'l () 00h06 AST 00h59 AST 0:53
26-08-2014 AT43Piarco Int'l ()Int'l Grantley-Adams () 22h19 AST 23h14 AST 0:55
26-08-2014 AT43Point Salines Int'l ()Piarco Int'l () 20h31 AST 21h03 AST 0:32
26-08-2014 AT43Piarco Int'l ()Point Salines Int'l () 19h09 AST 19h43 AST 0:34
26-08-2014 AT43Crown Point ()Piarco Int'l () 13h39 AST 13h59 AST 0:20
26-08-2014 AT43Piarco Int'l ()Crown Point () 12h36 AST 12h54 AST 0:17
26-08-2014 AT43Crown Point ()Piarco Int'l () 11h23 AST 11h45 AST 0:22
26-08-2014 AT43Piarco Int'l ()Crown Point () 10h30 AST 10h45 AST 0:14
26-08-2014 AT43Crown Point ()Piarco Int'l () 09h04 AST 09h26 AST 0:22
26-08-2014 AT43Piarco Int'l ()Crown Point () 08h10 AST 08h25 AST 0:14
26-08-2014 AT43Crown Point ()Piarco Int'l () 07h10 AST 07h29 AST 0:19
26-08-2014 AT43Piarco Int'l ()Crown Point () 06h10 AST 06h27 AST 0:16
25-08-2014 AT43Crown Point ()Piarco Int'l () 23h02 AST 23h21 AST 0:19
25-08-2014 AT43Piarco Int'l ()Crown Point () 21h54 AST 22h13 AST 0:18
25-08-2014 AT43Point Salines Int'l ()Piarco Int'l () 20h36 AST 20h57 AST 0:20
25-08-2014 AT43Piarco Int'l ()Point Salines Int'l () 19h14 AST 19h47 AST 0:32
25-08-2014 AT43Crown Point ()Piarco Int'l () 17h52 AST 18h14 AST 0:22
25-08-2014 AT43Piarco Int'l ()Crown Point () 16h54 AST 17h11 AST 0:16
25-08-2014 AT43Crown Point ()Piarco Int'l () 13h48 AST 14h07 AST 0:19
25-08-2014 AT43Piarco Int'l ()Crown Point () 12h53 AST 13h07 AST 0:13
25-08-2014 AT43Int'l Maiquetía ~ Simón Bolívar ()Piarco Int'l () 09h50 VET 11h50 AST 1:30
25-08-2014 AT43Piarco Int'l ()Int'l Maiquetía ~ Simón Bolívar () 07h38 AST 08h43 VET 1:35
24-08-2014 AT43Crown Point ()Piarco Int'l () 21h59 AST 22h31 AST 0:32
24-08-2014 AT43Piarco Int'l ()Crown Point () 21h12 AST 21h26 AST 0:13
24-08-2014 AT43Crown Point ()Piarco Int'l () 20h11 AST 20h31 AST 0:20
24-08-2014 AT43Piarco Int'l ()Crown Point () 19h15 AST 19h29 AST 0:13
24-08-2014 AT43Crown Point ()Piarco Int'l () 18h01 AST 18h26 AST 0:25
24-08-2014 AT43Piarco Int'l ()Crown Point () 17h15 AST 17h32 AST 0:16
24-08-2014 AT43Crown Point ()Piarco Int'l () 13h37 AST 13h54 AST 0:17
24-08-2014 AT43Piarco Int'l ()Crown Point () 12h31 AST 12h48 AST 0:17
24-08-2014 AT43Int'l Maiquetía ~ Simón Bolívar ()Piarco Int'l () 09h15 VET 11h11 AST 1:26
24-08-2014 AT43Piarco Int'l ()Int'l Maiquetía ~ Simón Bolívar () 06h59 AST 07h58 VET 1:29
23-08-2014 AT43Crown Point ()Piarco Int'l () 20h16 AST 20h32 AST 0:16
23-08-2014 AT43Piarco Int'l ()Crown Point () 19h19 AST 19h38 AST 0:19
23-08-2014 AT43Crown Point ()Piarco Int'l () 18h14 AST 18h34 AST 0:20
Les membres inscrits (l'inscription est gratuite et facile!) voient 4 months d'historique. S'inscrire